sensor_id;sensor_type;location;lat;lon;timestamp;P1;P2;P0
43479;PMS5003;29067;35.492;-97.520;2023-05-01T00:01:14;3;3;
43479;PMS5003;29067;35.492;-97.520;2023-05-01T00:03:42;0;0;
43479;PMS5003;29067;35.492;-97.520;2023-05-01T00:06:10;1;1;
43479;PMS5003;29067;35.492;-97.520;2023-05-01T00:08:37;3;3;
43479;PMS5003;29067;35.492;-97.520;2023-05-01T00:11:06;2;2;
43479;PMS5003;29067;35.492;-97.520;2023-05-01T00:13:34;3;2;
43479;PMS5003;29067;35.492;-97.520;2023-05-01T00:16:08;1;1;
43479;PMS5003;29067;35.492;-97.520;2023-05-01T00:18:37;2;2;
43479;PMS5003;29067;35.492;-97.520;2023-05-01T00:21:06;2;2;
43479;PMS5003;29067;35.492;-97.520;2023-05-01T00:23:34;2;1;
43479;PMS5003;29067;35.492;-97.520;2023-05-01T00:26:03;1;1;
43479;PMS5003;29067;35.492;-97.520;2023-05-01T00:28:32;0;0;
43479;PMS5003;29067;35.492;-97.520;2023-05-01T00:31:00;2;1;
43479;PMS5003;29067;35.492;-97.520;2023-05-01T00:33:27;1;1;
43479;PMS5003;29067;35.492;-97.520;2023-05-01T00:35:55;1;1;
43479;PMS5003;29067;35.492;-97.520;2023-05-01T00:38:24;3;3;
43479;PMS5003;29067;35.492;-97.520;2023-05-01T00:40:52;0;0;
43479;PMS5003;29067;35.492;-97.520;2023-05-01T00:43:22;3;2;
43479;PMS5003;29067;35.492;-97.520;2023-05-01T00:45:50;2;1;
43479;PMS5003;29067;35.492;-97.520;2023-05-01T00:48:18;1;1;
43479;PMS5003;29067;35.492;-97.520;2023-05-01T00:50:51;2;2;
43479;PMS5003;29067;35.492;-97.520;2023-05-01T00:53:20;1;1;
43479;PMS5003;29067;35.492;-97.520;2023-05-01T00:55:49;1;1;
43479;PMS5003;29067;35.492;-97.520;2023-05-01T00:58:19;2;2;
43479;PMS5003;29067;35.492;-97.520;2023-05-01T01:00:46;2;2;
43479;PMS5003;29067;35.492;-97.520;2023-05-01T01:03:16;2;2;
43479;PMS5003;29067;35.492;-97.520;2023-05-01T01:05:45;2;2;
43479;PMS5003;29067;35.492;-97.520;2023-05-01T01:08:22;1;1;
43479;PMS5003;29067;35.492;-97.520;2023-05-01T01:10:56;2;2;
43479;PMS5003;29067;35.492;-97.520;2023-05-01T01:13:35;0;0;
43479;PMS5003;29067;35.492;-97.520;2023-05-01T01:16:11;3;3;
43479;PMS5003;29067;35.492;-97.520;2023-05-01T01:18:47;4;3;
43479;PMS5003;29067;35.492;-97.520;2023-05-01T01:21:21;3;3;
43479;PMS5003;29067;35.492;-97.520;2023-05-01T01:24:32;2;2;
43479;PMS5003;29067;35.492;-97.520;2023-05-01T01:27:25;3;3;
43479;PMS5003;29067;35.492;-97.520;2023-05-01T01:30:16;2;1;
43479;PMS5003;29067;35.492;-97.520;2023-05-01T01:34:03;3;2;
43479;PMS5003;29067;35.492;-97.520;2023-05-01T01:36:41;5;5;
43479;PMS5003;29067;35.492;-97.520;2023-05-01T01:39:19;16;16;
43479;PMS5003;29067;35.492;-97.520;2023-05-01T01:41:53;3;2;
43479;PMS5003;29067;35.492;-97.520;2023-05-01T01:44:31;2;2;
43479;PMS5003;29067;35.492;-97.520;2023-05-01T01:47:04;2;2;
43479;PMS5003;29067;35.492;-97.520;2023-05-01T01:49:37;1;1;
43479;PMS5003;29067;35.492;-97.520;2023-05-01T01:52:09;1;1;
43479;PMS5003;29067;35.492;-97.520;2023-05-01T01:54:42;2;1;
43479;PMS5003;29067;35.492;-97.520;2023-05-01T01:57:15;3;3;
43479;PMS5003;29067;35.492;-97.520;2023-05-01T01:59:45;5;3;
43479;PMS5003;29067;35.492;-97.520;2023-05-01T02:02:15;2;2;
43479;PMS5003;29067;35.492;-97.520;2023-05-01T02:04:45;3;3;
43479;PMS5003;29067;35.492;-97.520;2023-05-01T02:07:15;2;2;
43479;PMS5003;29067;35.492;-97.520;2023-05-01T02:09:45;3;3;
43479;PMS5003;29067;35.492;-97.520;2023-05-01T02:12:15;3;2;
43479;PMS5003;29067;35.492;-97.520;2023-05-01T02:14:46;1;1;
43479;PMS5003;29067;35.492;-97.520;2023-05-01T02:17:16;2;2;
43479;PMS5003;29067;35.492;-97.520;2023-05-01T02:19:46;7;7;
43479;PMS5003;29067;35.492;-97.520;2023-05-01T02:22:16;3;3;
43479;PMS5003;29067;35.492;-97.520;2023-05-01T02:24:44;5;5;
43479;PMS5003;29067;35.492;-97.520;2023-05-01T02:27:20;15;14;
43479;PMS5003;29067;35.492;-97.520;2023-05-01T02:29:52;9;9;
43479;PMS5003;29067;35.492;-97.520;2023-05-01T02:32:21;2;2;
43479;PMS5003;29067;35.492;-97.520;2023-05-01T02:34:48;2;2;
43479;PMS5003;29067;35.492;-97.520;2023-05-01T02:37:16;3;2;
43479;PMS5003;29067;35.492;-97.520;2023-05-01T02:39:44;3;3;
43479;PMS5003;29067;35.492;-97.520;2023-05-01T02:42:13;2;2;
43479;PMS5003;29067;35.492;-97.520;2023-05-01T02:44:44;2;2;
43479;PMS5003;29067;35.492;-97.520;2023-05-01T02:47:17;2;2;
43479;PMS5003;29067;35.492;-97.520;2023-05-01T02:49:48;2;2;
43479;PMS5003;29067;35.492;-97.520;2023-05-01T02:52:18;2;2;
43479;PMS5003;29067;35.492;-97.520;2023-05-01T02:54:47;3;3;
43479;PMS5003;29067;35.492;-97.520;2023-05-01T02:57:16;3;2;
43479;PMS5003;29067;35.492;-97.520;2023-05-01T02:59:44;3;2;
43479;PMS5003;29067;35.492;-97.520;2023-05-01T03:02:12;2;2;
43479;PMS5003;29067;35.492;-97.520;2023-05-01T03:04:40;1;1;
43479;PMS5003;29067;35.492;-97.520;2023-05-01T03:07:07;2;2;
43479;PMS5003;29067;35.492;-97.520;2023-05-01T03:09:35;2;2;
43479;PMS5003;29067;35.492;-97.520;2023-05-01T03:12:03;2;2;
43479;PMS5003;29067;35.492;-97.520;2023-05-01T03:14:32;2;2;
43479;PMS5003;29067;35.492;-97.520;2023-05-01T03:17:00;2;2;
43479;PMS5003;29067;35.492;-97.520;2023-05-01T03:19:35;3;3;
43479;PMS5003;29067;35.492;-97.520;2023-05-01T03:22:04;7;6;
43479;PMS5003;29067;35.492;-97.520;2023-05-01T03:24:31;14;13;
43479;PMS5003;29067;35.492;-97.520;2023-05-01T03:26:59;12;12;
43479;PMS5003;29067;35.492;-97.520;2023-05-01T03:29:28;15;12;
43479;PMS5003;29067;35.492;-97.520;2023-05-01T03:31:56;8;7;
43479;PMS5003;29067;35.492;-97.520;2023-05-01T03:34:24;7;7;
43479;PMS5003;29067;35.492;-97.520;2023-05-01T03:36:57;5;4;
43479;PMS5003;29067;35.492;-97.520;2023-05-01T03:39:25;5;5;
43479;PMS5003;29067;35.492;-97.520;2023-05-01T03:41:59;5;4;
43479;PMS5003;29067;35.492;-97.520;2023-05-01T03:44:32;4;4;
43479;PMS5003;29067;35.492;-97.520;2023-05-01T03:47:06;4;3;
43479;PMS5003;29067;35.492;-97.520;2023-05-01T03:49:34;3;3;
43479;PMS5003;29067;35.492;-97.520;2023-05-01T03:52:07;4;4;
43479;PMS5003;29067;35.492;-97.520;2023-05-01T03:54:39;4;4;
43479;PMS5003;29067;35.492;-97.520;2023-05-01T03:57:11;6;6;
43479;PMS5003;29067;35.492;-97.520;2023-05-01T03:59:39;6;5;
43479;PMS5003;29067;35.492;-97.520;2023-05-01T04:02:07;7;6;
43479;PMS5003;29067;35.492;-97.520;2023-05-01T04:04:35;10;9;
43479;PMS5003;29067;35.492;-97.520;2023-05-01T04:07:03;14;13;
43479;PMS5003;29067;35.492;-97.520;2023-05-01T04:09:30;12;12;
43479;PMS5003;29067;35.492;-97.520;2023-05-01T04:11:58;10;10;
43479;PMS5003;29067;35.492;-97.520;2023-05-01T04:14:26;17;17;
43479;PMS5003;29067;35.492;-97.520;2023-05-01T04:16:54;17;17;
43479;PMS5003;29067;35.492;-97.520;2023-05-01T04:19:23;32;32;
43479;PMS5003;29067;35.492;-97.520;2023-05-01T04:21:57;31;31;
43479;PMS5003;29067;35.492;-97.520;2023-05-01T04:24:25;35;35;
43479;PMS5003;29067;35.492;-97.520;2023-05-01T04:26:53;24;24;
43479;PMS5003;29067;35.492;-97.520;2023-05-01T04:29:21;34;34;
43479;PMS5003;29067;35.492;-97.520;2023-05-01T04:31:49;27;27;
43479;PMS5003;29067;35.492;-97.520;2023-05-01T04:34:17;4;4;
43479;PMS5003;29067;35.492;-97.520;2023-05-01T04:36:50;3;3;
43479;PMS5003;29067;35.492;-97.520;2023-05-01T04:39:23;5;4;
43479;PMS5003;29067;35.492;-97.520;2023-05-01T04:41:53;4;4;
43479;PMS5003;29067;35.492;-97.520;2023-05-01T04:44:21;5;4;
43479;PMS5003;29067;35.492;-97.520;2023-05-01T04:46:57;2;2;
43479;PMS5003;29067;35.492;-97.520;2023-05-01T04:49:25;4;3;
43479;PMS5003;29067;35.492;-97.520;2023-05-01T04:51:53;3;3;
43479;PMS5003;29067;35.492;-97.520;2023-05-01T04:54:21;3;3;
43479;PMS5003;29067;35.492;-97.520;2023-05-01T04:56:48;3;3;
43479;PMS5003;29067;35.492;-97.520;2023-05-01T04:59:16;4;2;
43479;PMS5003;29067;35.492;-97.520;2023-05-01T05:01:44;2;2;
43479;PMS5003;29067;35.492;-97.520;2023-05-01T05:04:12;4;3;
43479;PMS5003;29067;35.492;-97.520;2023-05-01T05:06:40;4;4;
43479;PMS5003;29067;35.492;-97.520;2023-05-01T05:09:08;3;3;
43479;PMS5003;29067;35.492;-97.520;2023-05-01T05:11:35;5;4;
43479;PMS5003;29067;35.492;-97.520;2023-05-01T05:14:03;5;3;
43479;PMS5003;29067;35.492;-97.520;2023-05-01T05:16:31;3;3;
43479;PMS5003;29067;35.492;-97.520;2023-05-01T05:19:06;3;2;
43479;PMS5003;29067;35.492;-97.520;2023-05-01T05:21:36;4;3;
43479;PMS5003;29067;35.492;-97.520;2023-05-01T05:24:12;3;3;
43479;PMS5003;29067;35.492;-97.520;2023-05-01T05:26:43;3;2;
43479;PMS5003;29067;35.492;-97.520;2023-05-01T05:29:16;2;2;
43479;PMS5003;29067;35.492;-97.520;2023-05-01T05:31:44;3;3;
43479;PMS5003;29067;35.492;-97.520;2023-05-01T05:34:17;5;5;
43479;PMS5003;29067;35.492;-97.520;2023-05-01T05:36:44;3;3;
43479;PMS5003;29067;35.492;-97.520;2023-05-01T05:39:12;2;2;
43479;PMS5003;29067;35.492;-97.520;2023-05-01T05:41:40;2;2;
43479;PMS5003;29067;35.492;-97.520;2023-05-01T05:44:15;3;3;
43479;PMS5003;29067;35.492;-97.520;2023-05-01T05:46:48;3;3;
43479;PMS5003;29067;35.492;-97.520;2023-05-01T05:49:17;4;4;
43479;PMS5003;29067;35.492;-97.520;2023-05-01T05:51:45;2;2;
43479;PMS5003;29067;35.492;-97.520;2023-05-01T05:54:13;2;2;
43479;PMS5003;29067;35.492;-97.520;2023-05-01T05:56:40;4;3;
43479;PMS5003;29067;35.492;-97.520;2023-05-01T05:59:08;2;2;
43479;PMS5003;29067;35.492;-97.520;2023-05-01T06:01:36;3;3;
43479;PMS5003;29067;35.492;-97.520;2023-05-01T06:04:04;4;3;
43479;PMS5003;29067;35.492;-97.520;2023-05-01T06:06:32;5;4;
43479;PMS5003;29067;35.492;-97.520;2023-05-01T06:09:00;3;3;
43479;PMS5003;29067;35.492;-97.520;2023-05-01T06:11:28;3;3;
43479;PMS5003;29067;35.492;-97.520;2023-05-01T06:13:56;3;3;
43479;PMS5003;29067;35.492;-97.520;2023-05-01T06:16:24;3;3;
43479;PMS5003;29067;35.492;-97.520;2023-05-01T06:18:51;3;2;
43479;PMS5003;29067;35.492;-97.520;2023-05-01T06:21:19;3;3;
43479;PMS5003;29067;35.492;-97.520;2023-05-01T06:23:47;3;3;
43479;PMS5003;29067;35.492;-97.520;2023-05-01T06:26:16;3;3;
43479;PMS5003;29067;35.492;-97.520;2023-05-01T06:28:44;4;4;
43479;PMS5003;29067;35.492;-97.520;2023-05-01T06:31:12;2;2;
43479;PMS5003;29067;35.492;-97.520;2023-05-01T06:33:40;4;4;
43479;PMS5003;29067;35.492;-97.520;2023-05-01T06:36:07;5;3;
43479;PMS5003;29067;35.492;-97.520;2023-05-01T06:38:35;4;3;
43479;PMS5003;29067;35.492;-97.520;2023-05-01T06:41:03;5;4;
43479;PMS5003;29067;35.492;-97.520;2023-05-01T06:43:31;3;3;
43479;PMS5003;29067;35.492;-97.520;2023-05-01T06:45:59;3;3;
43479;PMS5003;29067;35.492;-97.520;2023-05-01T06:48:27;2;2;
43479;PMS5003;29067;35.492;-97.520;2023-05-01T06:50:55;4;4;
43479;PMS5003;29067;35.492;-97.520;2023-05-01T06:53:23;3;3;
43479;PMS5003;29067;35.492;-97.520;2023-05-01T06:55:51;3;3;
43479;PMS5003;29067;35.492;-97.520;2023-05-01T06:58:19;5;4;
43479;PMS5003;29067;35.492;-97.520;2023-05-01T07:00:46;3;3;
43479;PMS5003;29067;35.492;-97.520;2023-05-01T07:03:14;3;3;
43479;PMS5003;29067;35.492;-97.520;2023-05-01T07:05:42;3;3;
43479;PMS5003;29067;35.492;-97.520;2023-05-01T07:08:10;3;3;
43479;PMS5003;29067;35.492;-97.520;2023-05-01T07:10:38;6;4;
43479;PMS5003;29067;35.492;-97.520;2023-05-01T07:13:06;4;4;
43479;PMS5003;29067;35.492;-97.520;2023-05-01T07:15:34;4;4;
43479;PMS5003;29067;35.492;-97.520;2023-05-01T07:18:02;5;4;
43479;PMS5003;29067;35.492;-97.520;2023-05-01T07:20:31;4;3;
43479;PMS5003;29067;35.492;-97.520;2023-05-01T07:22:59;4;4;
43479;PMS5003;29067;35.492;-97.520;2023-05-01T07:25:27;4;4;
43479;PMS5003;29067;35.492;-97.520;2023-05-01T07:27:55;5;5;
43479;PMS5003;29067;35.492;-97.520;2023-05-01T07:30:24;3;3;
43479;PMS5003;29067;35.492;-97.520;2023-05-01T07:32:52;4;3;
43479;PMS5003;29067;35.492;-97.520;2023-05-01T07:35:20;4;3;
43479;PMS5003;29067;35.492;-97.520;2023-05-01T07:37:55;3;3;
43479;PMS5003;29067;35.492;-97.520;2023-05-01T07:40:22;3;2;
43479;PMS5003;29067;35.492;-97.520;2023-05-01T07:43:01;4;4;
43479;PMS5003;29067;35.492;-97.520;2023-05-01T07:45:28;3;3;
43479;PMS5003;29067;35.492;-97.520;2023-05-01T07:48:01;4;4;
43479;PMS5003;29067;35.492;-97.520;2023-05-01T07:50:30;5;4;
43479;PMS5003;29067;35.492;-97.520;2023-05-01T07:53:04;4;4;
43479;PMS5003;29067;35.492;-97.520;2023-05-01T07:55:32;3;3;
43479;PMS5003;29067;35.492;-97.520;2023-05-01T07:58:05;2;2;
43479;PMS5003;29067;35.492;-97.520;2023-05-01T08:00:34;4;3;
43479;PMS5003;29067;35.492;-97.520;2023-05-01T08:03:08;4;4;
43479;PMS5003;29067;35.492;-97.520;2023-05-01T08:05:38;3;3;
43479;PMS5003;29067;35.492;-97.520;2023-05-01T08:08:07;4;3;
43479;PMS5003;29067;35.492;-97.520;2023-05-01T08:10:35;6;6;
43479;PMS5003;29067;35.492;-97.520;2023-05-01T08:13:03;11;11;
43479;PMS5003;29067;35.492;-97.520;2023-05-01T08:15:30;10;10;
43479;PMS5003;29067;35.492;-97.520;2023-05-01T08:17:59;11;11;
43479;PMS5003;29067;35.492;-97.520;2023-05-01T08:20:27;16;16;
43479;PMS5003;29067;35.492;-97.520;2023-05-01T08:23:01;15;15;
43479;PMS5003;29067;35.492;-97.520;2023-05-01T08:25:29;15;15;
43479;PMS5003;29067;35.492;-97.520;2023-05-01T08:27:58;18;18;
43479;PMS5003;29067;35.492;-97.520;2023-05-01T08:30:30;38;37;
43479;PMS5003;29067;35.492;-97.520;2023-05-01T08:33:09;52;52;
43479;PMS5003;29067;35.492;-97.520;2023-05-01T08:35:37;31;31;
43479;PMS5003;29067;35.492;-97.520;2023-05-01T08:38:05;18;17;
43479;PMS5003;29067;35.492;-97.520;2023-05-01T08:40:36;16;16;
43479;PMS5003;29067;35.492;-97.520;2023-05-01T08:43:04;23;23;
43479;PMS5003;29067;35.492;-97.520;2023-05-01T08:45:33;35;35;
43479;PMS5003;29067;35.492;-97.520;2023-05-01T08:48:04;63;63;
43479;PMS5003;29067;35.492;-97.520;2023-05-01T08:50:38;78;78;
43479;PMS5003;29067;35.492;-97.520;2023-05-01T08:53:06;49;48;
43479;PMS5003;29067;35.492;-97.520;2023-05-01T08:55:37;60;60;
43479;PMS5003;29067;35.492;-97.520;2023-05-01T08:58:10;38;38;
43479;PMS5003;29067;35.492;-97.520;2023-05-01T09:00:46;22;22;
43479;PMS5003;29067;35.492;-97.520;2023-05-01T09:03:20;22;22;
43479;PMS5003;29067;35.492;-97.520;2023-05-01T09:05:48;60;58;
43479;PMS5003;29067;35.492;-97.520;2023-05-01T09:08:16;51;51;
43479;PMS5003;29067;35.492;-97.520;2023-05-01T09:10:50;76;75;
43479;PMS5003;29067;35.492;-97.520;2023-05-01T09:13:29;65;65;
43479;PMS5003;29067;35.492;-97.520;2023-05-01T09:16:03;11;8;
43479;PMS5003;29067;35.492;-97.520;2023-05-01T09:18:32;22;22;
43479;PMS5003;29067;35.492;-97.520;2023-05-01T09:21:01;24;24;
43479;PMS5003;29067;35.492;-97.520;2023-05-01T09:23:29;22;22;
43479;PMS5003;29067;35.492;-97.520;2023-05-01T09:25:57;10;10;
43479;PMS5003;29067;35.492;-97.520;2023-05-01T09:28:39;2;2;
43479;PMS5003;29067;35.492;-97.520;2023-05-01T09:31:24;3;3;
43479;PMS5003;29067;35.492;-97.520;2023-05-01T09:33:54;3;2;
43479;PMS5003;29067;35.492;-97.520;2023-05-01T09:36:23;4;3;
43479;PMS5003;29067;35.492;-97.520;2023-05-01T09:38:52;3;3;
43479;PMS5003;29067;35.492;-97.520;2023-05-01T09:41:20;3;3;
43479;PMS5003;29067;35.492;-97.520;2023-05-01T09:43:48;3;3;
43479;PMS5003;29067;35.492;-97.520;2023-05-01T09:46:24;4;3;
43479;PMS5003;29067;35.492;-97.520;2023-05-01T09:48:53;2;2;
43479;PMS5003;29067;35.492;-97.520;2023-05-01T09:51:24;2;2;
43479;PMS5003;29067;35.492;-97.520;2023-05-01T09:53:54;3;3;
43479;PMS5003;29067;35.492;-97.520;2023-05-01T09:56:22;4;3;
43479;PMS5003;29067;35.492;-97.520;2023-05-01T09:58:52;3;3;
43479;PMS5003;29067;35.492;-97.520;2023-05-01T10:01:42;4;4;
43479;PMS5003;29067;35.492;-97.520;2023-05-01T10:04:28;3;3;
43479;PMS5003;29067;35.492;-97.520;2023-05-01T10:06:58;3;3;
43479;PMS5003;29067;35.492;-97.520;2023-05-01T10:09:37;2;2;
43479;PMS5003;29067;35.492;-97.520;2023-05-01T10:12:05;3;3;
43479;PMS5003;29067;35.492;-97.520;2023-05-01T10:14:33;3;3;
43479;PMS5003;29067;35.492;-97.520;2023-05-01T10:17:18;4;3;
43479;PMS5003;29067;35.492;-97.520;2023-05-01T10:19:46;3;3;
43479;PMS5003;29067;35.492;-97.520;2023-05-01T10:22:14;3;3;
43479;PMS5003;29067;35.492;-97.520;2023-05-01T10:24:43;3;3;
43479;PMS5003;29067;35.492;-97.520;2023-05-01T10:27:11;3;3;
43479;PMS5003;29067;35.492;-97.520;2023-05-01T10:29:39;4;4;
43479;PMS5003;29067;35.492;-97.520;2023-05-01T10:32:08;4;4;
43479;PMS5003;29067;35.492;-97.520;2023-05-01T10:34:37;4;4;
43479;PMS5003;29067;35.492;-97.520;2023-05-01T10:37:10;5;4;
43479;PMS5003;29067;35.492;-97.520;2023-05-01T10:39:44;4;4;
43479;PMS5003;29067;35.492;-97.520;2023-05-01T10:42:12;5;5;
43479;PMS5003;29067;35.492;-97.520;2023-05-01T10:44:40;4;4;
43479;PMS5003;29067;35.492;-97.520;2023-05-01T10:48:51;5;5;
43479;PMS5003;29067;35.492;-97.520;2023-05-01T10:51:20;4;4;
43479;PMS5003;29067;35.492;-97.520;2023-05-01T10:53:49;8;8;
43479;PMS5003;29067;35.492;-97.520;2023-05-01T10:56:49;7;5;
43479;PMS5003;29067;35.492;-97.520;2023-05-01T10:59:17;5;5;
43479;PMS5003;29067;35.492;-97.520;2023-05-01T11:04:05;5;5;
43479;PMS5003;29067;35.492;-97.520;2023-05-01T11:06:35;5;5;
43479;PMS5003;29067;35.492;-97.520;2023-05-01T11:09:34;4;4;
43479;PMS5003;29067;35.492;-97.520;2023-05-01T11:12:03;8;7;
43479;PMS5003;29067;35.492;-97.520;2023-05-01T11:15:00;7;7;
43479;PMS5003;29067;35.492;-97.520;2023-05-01T11:17:45;5;5;
43479;PMS5003;29067;35.492;-97.520;2023-05-01T11:20:45;8;8;
43479;PMS5003;29067;35.492;-97.520;2023-05-01T11:23:17;7;7;
43479;PMS5003;29067;35.492;-97.520;2023-05-01T11:25:46;5;5;
43479;PMS5003;29067;35.492;-97.520;2023-05-01T11:28:17;4;4;
43479;PMS5003;29067;35.492;-97.520;2023-05-01T11:30:46;6;6;
43479;PMS5003;29067;35.492;-97.520;2023-05-01T11:33:20;9;9;
43479;PMS5003;29067;35.492;-97.520;2023-05-01T11:35:55;6;6;
43479;PMS5003;29067;35.492;-97.520;2023-05-01T11:38:24;9;8;
43479;PMS5003;29067;35.492;-97.520;2023-05-01T11:40:54;7;7;
43479;PMS5003;29067;35.492;-97.520;2023-05-01T11:43:25;7;7;
43479;PMS5003;29067;35.492;-97.520;2023-05-01T11:45:54;7;7;
43479;PMS5003;29067;35.492;-97.520;2023-05-01T11:48:22;8;7;
43479;PMS5003;29067;35.492;-97.520;2023-05-01T11:50:50;6;6;
43479;PMS5003;29067;35.492;-97.520;2023-05-01T11:53:18;8;7;
43479;PMS5003;29067;35.492;-97.520;2023-05-01T11:55:46;8;8;
43479;PMS5003;29067;35.492;-97.520;2023-05-01T11:58:14;10;8;
43479;PMS5003;29067;35.492;-97.520;2023-05-01T12:00:42;7;7;
43479;PMS5003;29067;35.492;-97.520;2023-05-01T12:03:11;7;7;
43479;PMS5003;29067;35.492;-97.520;2023-05-01T12:05:41;5;5;
43479;PMS5003;29067;35.492;-97.520;2023-05-01T12:08:11;5;5;
43479;PMS5003;29067;35.492;-97.520;2023-05-01T12:10:42;8;8;
43479;PMS5003;29067;35.492;-97.520;2023-05-01T12:13:11;5;5;
43479;PMS5003;29067;35.492;-97.520;2023-05-01T12:15:41;4;4;
43479;PMS5003;29067;35.492;-97.520;2023-05-01T12:18:11;8;7;
43479;PMS5003;29067;35.492;-97.520;2023-05-01T12:20:40;8;8;
43479;PMS5003;29067;35.492;-97.520;2023-05-01T12:23:10;7;7;
43479;PMS5003;29067;35.492;-97.520;2023-05-01T12:25:40;7;5;
43479;PMS5003;29067;35.492;-97.520;2023-05-01T12:28:12;8;8;
43479;PMS5003;29067;35.492;-97.520;2023-05-01T12:30:42;5;5;
43479;PMS5003;29067;35.492;-97.520;2023-05-01T12:33:12;4;4;
43479;PMS5003;29067;35.492;-97.520;2023-05-01T12:35:42;5;5;
43479;PMS5003;29067;35.492;-97.520;2023-05-01T12:38:12;8;8;
43479;PMS5003;29067;35.492;-97.520;2023-05-01T12:40:49;85;84;
43479;PMS5003;29067;35.492;-97.520;2023-05-01T12:43:19;12;9;
43479;PMS5003;29067;35.492;-97.520;2023-05-01T12:45:50;23;23;
43479;PMS5003;29067;35.492;-97.520;2023-05-01T12:48:19;7;5;
43479;PMS5003;29067;35.492;-97.520;2023-05-01T12:50:48;5;5;
43479;PMS5003;29067;35.492;-97.520;2023-05-01T12:53:17;5;5;
43479;PMS5003;29067;35.492;-97.520;2023-05-01T12:55:45;4;4;
43479;PMS5003;29067;35.492;-97.520;2023-05-01T12:58:14;5;5;
43479;PMS5003;29067;35.492;-97.520;2023-05-01T13:00:45;6;6;
43479;PMS5003;29067;35.492;-97.520;2023-05-01T13:03:21;6;6;
43479;PMS5003;29067;35.492;-97.520;2023-05-01T13:05:51;10;8;
43479;PMS5003;29067;35.492;-97.520;2023-05-01T13:08:36;10;10;
43479;PMS5003;29067;35.492;-97.520;2023-05-01T13:11:08;12;12;
43479;PMS5003;29067;35.492;-97.520;2023-05-01T13:13:38;11;10;
43479;PMS5003;29067;35.492;-97.520;2023-05-01T13:16:07;13;13;
43479;PMS5003;29067;35.492;-97.520;2023-05-01T13:18:41;14;14;
43479;PMS5003;29067;35.492;-97.520;2023-05-01T13:21:11;20;16;
43479;PMS5003;29067;35.492;-97.520;2023-05-01T13:23:40;23;22;
43479;PMS5003;29067;35.492;-97.520;2023-05-01T13:26:16;23;23;
43479;PMS5003;29067;35.492;-97.520;2023-05-01T13:28:50;26;24;
43479;PMS5003;29067;35.492;-97.520;2023-05-01T13:31:24;17;17;
43479;PMS5003;29067;35.492;-97.520;2023-05-01T13:33:53;18;18;
43479;PMS5003;29067;35.492;-97.520;2023-05-01T13:36:23;16;16;
43479;PMS5003;29067;35.492;-97.520;2023-05-01T13:38:56;9;8;
43479;PMS5003;29067;35.492;-97.520;2023-05-01T13:41:25;11;8;
43479;PMS5003;29067;35.492;-97.520;2023-05-01T13:43:55;9;8;
43479;PMS5003;29067;35.492;-97.520;2023-05-01T13:46:23;5;4;
43479;PMS5003;29067;35.492;-97.520;2023-05-01T13:48:52;7;7;
43479;PMS5003;29067;35.492;-97.520;2023-05-01T13:51:20;10;9;
43479;PMS5003;29067;35.492;-97.520;2023-05-01T13:53:50;8;8;
43479;PMS5003;29067;35.492;-97.520;2023-05-01T13:56:17;16;16;
43479;PMS5003;29067;35.492;-97.520;2023-05-01T13:58:45;20;19;
43479;PMS5003;29067;35.492;-97.520;2023-05-01T14:01:14;15;15;
43479;PMS5003;29067;35.492;-97.520;2023-05-01T14:03:43;9;9;
43479;PMS5003;29067;35.492;-97.520;2023-05-01T14:06:11;6;6;
43479;PMS5003;29067;35.492;-97.520;2023-05-01T14:08:40;7;7;
43479;PMS5003;29067;35.492;-97.520;2023-05-01T14:11:09;7;6;
43479;PMS5003;29067;35.492;-97.520;2023-05-01T14:13:39;5;4;
43479;PMS5003;29067;35.492;-97.520;2023-05-01T14:16:09;7;6;
43479;PMS5003;29067;35.492;-97.520;2023-05-01T14:18:43;5;5;
43479;PMS5003;29067;35.492;-97.520;2023-05-01T14:21:13;11;10;
43479;PMS5003;29067;35.492;-97.520;2023-05-01T14:23:46;6;6;
43479;PMS5003;29067;35.492;-97.520;2023-05-01T14:26:16;7;6;
43479;PMS5003;29067;35.492;-97.520;2023-05-01T14:28:45;5;5;
43479;PMS5003;29067;35.492;-97.520;2023-05-01T14:31:24;6;6;
43479;PMS5003;29067;35.492;-97.520;2023-05-01T14:33:54;5;5;
43479;PMS5003;29067;35.492;-97.520;2023-05-01T14:36:23;4;4;
43479;PMS5003;29067;35.492;-97.520;2023-05-01T14:38:54;2;2;
43479;PMS5003;29067;35.492;-97.520;2023-05-01T14:41:23;3;2;
43479;PMS5003;29067;35.492;-97.520;2023-05-01T14:43:53;4;3;
43479;PMS5003;29067;35.492;-97.520;2023-05-01T14:46:26;3;3;
43479;PMS5003;29067;35.492;-97.520;2023-05-01T14:48:55;2;2;
43479;PMS5003;29067;35.492;-97.520;2023-05-01T14:51:24;1;1;
43479;PMS5003;29067;35.492;-97.520;2023-05-01T14:53:52;2;2;
43479;PMS5003;29067;35.492;-97.520;2023-05-01T14:56:21;1;1;
43479;PMS5003;29067;35.492;-97.520;2023-05-01T14:58:49;4;4;
43479;PMS5003;29067;35.492;-97.520;2023-05-01T15:01:24;4;4;
43479;PMS5003;29067;35.492;-97.520;2023-05-01T15:03:54;3;3;
43479;PMS5003;29067;35.492;-97.520;2023-05-01T15:06:21;3;2;
43479;PMS5003;29067;35.492;-97.520;2023-05-01T15:08:50;2;2;
43479;PMS5003;29067;35.492;-97.520;2023-05-01T15:11:18;3;2;
43479;PMS5003;29067;35.492;-97.520;2023-05-01T15:13:45;2;2;
43479;PMS5003;29067;35.492;-97.520;2023-05-01T15:16:13;3;2;
43479;PMS5003;29067;35.492;-97.520;2023-05-01T15:18:46;2;2;
43479;PMS5003;29067;35.492;-97.520;2023-05-01T15:21:20;2;2;
43479;PMS5003;29067;35.492;-97.520;2023-05-01T15:23:48;2;2;
43479;PMS5003;29067;35.492;-97.520;2023-05-01T15:26:22;2;2;
43479;PMS5003;29067;35.492;-97.520;2023-05-01T15:28:50;3;2;
43479;PMS5003;29067;35.492;-97.520;2023-05-01T15:31:18;2;2;
43479;PMS5003;29067;35.492;-97.520;2023-05-01T15:33:45;3;2;
43479;PMS5003;29067;35.492;-97.520;2023-05-01T15:36:14;2;2;
43479;PMS5003;29067;35.492;-97.520;2023-05-01T15:38:42;3;3;
43479;PMS5003;29067;35.492;-97.520;2023-05-01T15:41:10;3;2;
43479;PMS5003;29067;35.492;-97.520;2023-05-01T15:43:39;3;2;
43479;PMS5003;29067;35.492;-97.520;2023-05-01T15:46:15;2;2;
43479;PMS5003;29067;35.492;-97.520;2023-05-01T15:48:58;3;2;
43479;PMS5003;29067;35.492;-97.520;2023-05-01T15:51:33;3;2;
43479;PMS5003;29067;35.492;-97.520;2023-05-01T15:54:03;3;2;
43479;PMS5003;29067;35.492;-97.520;2023-05-01T15:56:33;1;1;
43479;PMS5003;29067;35.492;-97.520;2023-05-01T15:59:01;2;2;
43479;PMS5003;29067;35.492;-97.520;2023-05-01T16:01:31;8;8;
43479;PMS5003;29067;35.492;-97.520;2023-05-01T16:04:01;34;33;
43479;PMS5003;29067;35.492;-97.520;2023-05-01T16:06:30;4;4;
43479;PMS5003;29067;35.492;-97.520;2023-05-01T16:08:57;2;1;
43479;PMS5003;29067;35.492;-97.520;2023-05-01T16:11:25;2;2;
43479;PMS5003;29067;35.492;-97.520;2023-05-01T16:13:54;7;7;
43479;PMS5003;29067;35.492;-97.520;2023-05-01T16:16:23;21;21;
43479;PMS5003;29067;35.492;-97.520;2023-05-01T16:18:54;12;12;
43479;PMS5003;29067;35.492;-97.520;2023-05-01T16:21:24;2;2;
43479;PMS5003;29067;35.492;-97.520;2023-05-01T16:23:53;2;2;
43479;PMS5003;29067;35.492;-97.520;2023-05-01T16:26:22;2;2;
43479;PMS5003;29067;35.492;-97.520;2023-05-01T16:28:57;3;2;
43479;PMS5003;29067;35.492;-97.520;2023-05-01T16:31:27;1;1;
43479;PMS5003;29067;35.492;-97.520;2023-05-01T16:34:04;1;1;
43479;PMS5003;29067;35.492;-97.520;2023-05-01T16:36:33;1;1;
43479;PMS5003;29067;35.492;-97.520;2023-05-01T16:39:02;2;2;